Terminal Aerodrome Forecast
Issued by NWS

Current Version | Previous Version | Graphics & Text | Print | Product List | Glossary On
Versions: 1 2 3 4 5 6 7 8 9 10 11 12 13 14 15 16 17 18
771
FTUS41 KILN 201130
TAFLCK
TAF
KLCK 201130Z 2012/2112 25008KT P6SM SKC
     FM201800 26011KT P6SM SCT060
     FM210000 25004KT P6SM SCT200
     FM210900 19003KT P6SM BKN080=

USA.gov is the U.S. government's official web portal to all federal, state and local government web resources and services.